sensor_id;sensor_type;location;lat;lon;timestamp;pressure;altitude;pressure_sealevel;temperature;humidity
65013;BME280;51715;39.432;-77.518;2023-10-09T00:01:39;98840.03;;;16.84;25.18
65013;BME280;51715;39.432;-77.518;2023-10-09T00:04:07;98840.53;;;16.84;26.17
65013;BME280;51715;39.432;-77.518;2023-10-09T00:06:35;98849.35;;;16.27;26.87
65013;BME280;51715;39.432;-77.518;2023-10-09T00:09:03;98854.49;;;16.75;26.11
65013;BME280;51715;39.432;-77.518;2023-10-09T00:11:32;98855.09;;;16.51;26.41
65013;BME280;51715;39.432;-77.518;2023-10-09T00:14:00;98861.40;;;16.79;26.39
65013;BME280;51715;39.432;-77.518;2023-10-09T00:16:29;98863.75;;;16.63;26.59
65013;BME280;51715;39.432;-77.518;2023-10-09T00:18:57;98863.78;;;16.74;26.35
65013;BME280;51715;39.432;-77.518;2023-10-09T00:21:25;98866.44;;;16.32;26.11
65013;BME280;51715;39.432;-77.518;2023-10-09T00:23:53;98868.18;;;16.56;26.37
65013;BME280;51715;39.432;-77.518;2023-10-09T00:26:22;98872.52;;;16.44;26.82
65013;BME280;51715;39.432;-77.518;2023-10-09T00:28:50;98875.36;;;16.53;27.14
65013;BME280;51715;39.432;-77.518;2023-10-09T00:31:20;98877.50;;;16.54;27.19
65013;BME280;51715;39.432;-77.518;2023-10-09T00:33:48;98882.96;;;16.02;27.00
65013;BME280;51715;39.432;-77.518;2023-10-09T00:36:16;98884.39;;;16.15;27.76
65013;BME280;51715;39.432;-77.518;2023-10-09T00:38:44;98890.98;;;16.20;27.70
65013;BME280;51715;39.432;-77.518;2023-10-09T00:41:12;98885.88;;;15.98;27.46
65013;BME280;51715;39.432;-77.518;2023-10-09T00:43:41;98889.54;;;16.08;27.53
65013;BME280;51715;39.432;-77.518;2023-10-09T00:46:09;98893.25;;;15.94;27.40
65013;BME280;51715;39.432;-77.518;2023-10-09T00:48:38;98897.05;;;15.86;27.77
65013;BME280;51715;39.432;-77.518;2023-10-09T00:51:06;98900.45;;;15.84;27.56
65013;BME280;51715;39.432;-77.518;2023-10-09T00:53:34;98901.91;;;15.94;27.58
65013;BME280;51715;39.432;-77.518;2023-10-09T00:56:03;98895.19;;;15.97;27.82
65013;BME280;51715;39.432;-77.518;2023-10-09T00:58:33;98894.57;;;15.80;27.60
65013;BME280;51715;39.432;-77.518;2023-10-09T01:01:01;98898.00;;;16.03;27.77
65013;BME280;51715;39.432;-77.518;2023-10-09T01:03:29;98897.94;;;16.02;27.56
65013;BME280;51715;39.432;-77.518;2023-10-09T01:06:00;98897.95;;;16.03;27.72
65013;BME280;51715;39.432;-77.518;2023-10-09T01:08:30;98896.41;;;16.08;27.88
65013;BME280;51715;39.432;-77.518;2023-10-09T01:10:59;98891.43;;;16.26;27.70
65013;BME280;51715;39.432;-77.518;2023-10-09T01:13:27;98896.01;;;15.91;27.79
65013;BME280;51715;39.432;-77.518;2023-10-09T01:15:55;98896.76;;;15.95;27.98
65013;BME280;51715;39.432;-77.518;2023-10-09T01:18:24;98904.43;;;15.99;27.82
65013;BME280;51715;39.432;-77.518;2023-10-09T01:20:53;98905.79;;;15.97;28.08
65013;BME280;51715;39.432;-77.518;2023-10-09T01:23:22;98903.89;;;16.07;27.55
65013;BME280;51715;39.432;-77.518;2023-10-09T01:25:50;98904.63;;;15.91;27.67
65013;BME280;51715;39.432;-77.518;2023-10-09T01:28:19;98906.05;;;16.09;28.28
65013;BME280;51715;39.432;-77.518;2023-10-09T01:30:47;98903.89;;;16.07;27.98
65013;BME280;51715;39.432;-77.518;2023-10-09T01:33:16;98907.15;;;16.07;28.00
65013;BME280;51715;39.432;-77.518;2023-10-09T01:35:44;98905.06;;;16.11;28.04
65013;BME280;51715;39.432;-77.518;2023-10-09T01:38:12;98904.49;;;16.06;28.07
65013;BME280;51715;39.432;-77.518;2023-10-09T01:40:42;98905.75;;;16.09;27.91
65013;BME280;51715;39.432;-77.518;2023-10-09T01:43:10;98905.25;;;16.15;28.20
65013;BME280;51715;39.432;-77.518;2023-10-09T01:45:39;98906.44;;;16.23;27.80
65013;BME280;51715;39.432;-77.518;2023-10-09T01:48:07;98912.01;;;16.20;27.95
65013;BME280;51715;39.432;-77.518;2023-10-09T01:50:36;98910.72;;;16.01;27.90
65013;BME280;51715;39.432;-77.518;2023-10-09T01:53:04;98911.59;;;16.10;28.19
65013;BME280;51715;39.432;-77.518;2023-10-09T01:55:33;98911.07;;;16.30;27.90
65013;BME280;51715;39.432;-77.518;2023-10-09T01:58:02;98917.60;;;16.14;28.23
65013;BME280;51715;39.432;-77.518;2023-10-09T02:00:36;98920.42;;;16.30;27.96
65013;BME280;51715;39.432;-77.518;2023-10-09T02:03:05;98924.50;;;16.13;28.15
65013;BME280;51715;39.432;-77.518;2023-10-09T02:05:33;98922.54;;;15.94;28.29
65013;BME280;51715;39.432;-77.518;2023-10-09T02:08:02;98923.20;;;15.80;28.46
65013;BME280;51715;39.432;-77.518;2023-10-09T02:10:30;98926.25;;;15.74;28.72
65013;BME280;51715;39.432;-77.518;2023-10-09T02:12:59;98932.16;;;15.69;28.68
65013;BME280;51715;39.432;-77.518;2023-10-09T02:15:29;98931.15;;;15.58;28.62
65013;BME280;51715;39.432;-77.518;2023-10-09T02:17:58;98930.66;;;15.52;28.46
65013;BME280;51715;39.432;-77.518;2023-10-09T02:20:26;98933.65;;;15.44;28.14
65013;BME280;51715;39.432;-77.518;2023-10-09T02:22:55;98935.49;;;15.43;28.09
65013;BME280;51715;39.432;-77.518;2023-10-09T02:25:24;98939.21;;;15.41;28.46
65013;BME280;51715;39.432;-77.518;2023-10-09T02:27:52;98941.12;;;15.92;28.38
65013;BME280;51715;39.432;-77.518;2023-10-09T02:30:20;98941.48;;;15.33;28.47
65013;BME280;51715;39.432;-77.518;2023-10-09T02:32:49;98943.93;;;15.24;28.48
65013;BME280;51715;39.432;-77.518;2023-10-09T02:35:17;98946.41;;;15.68;28.68
65013;BME280;51715;39.432;-77.518;2023-10-09T02:37:45;98950.12;;;15.61;28.86
65013;BME280;51715;39.432;-77.518;2023-10-09T02:40:13;98956.34;;;15.44;28.70
65013;BME280;51715;39.432;-77.518;2023-10-09T02:42:41;98961.54;;;15.64;28.71
65013;BME280;51715;39.432;-77.518;2023-10-09T02:45:10;98960.71;;;15.16;28.77
65013;BME280;51715;39.432;-77.518;2023-10-09T02:47:38;98954.75;;;15.16;28.98
65013;BME280;51715;39.432;-77.518;2023-10-09T02:50:06;98956.38;;;14.91;28.95
65013;BME280;51715;39.432;-77.518;2023-10-09T02:52:35;98950.70;;;15.00;28.92
65013;BME280;51715;39.432;-77.518;2023-10-09T02:55:03;98950.22;;;15.25;29.13
65013;BME280;51715;39.432;-77.518;2023-10-09T02:57:32;98951.23;;;14.79;29.08
65013;BME280;51715;39.432;-77.518;2023-10-09T03:00:00;98949.78;;;15.03;29.15
65013;BME280;51715;39.432;-77.518;2023-10-09T03:02:29;98946.00;;;15.24;29.19
65013;BME280;51715;39.432;-77.518;2023-10-09T03:04:57;98942.20;;;14.75;29.10
65013;BME280;51715;39.432;-77.518;2023-10-09T03:07:25;98946.79;;;14.64;29.21
65013;BME280;51715;39.432;-77.518;2023-10-09T03:09:53;98946.58;;;15.07;29.50
65013;BME280;51715;39.432;-77.518;2023-10-09T03:12:21;98944.63;;;14.88;29.76
65013;BME280;51715;39.432;-77.518;2023-10-09T03:14:50;98945.50;;;14.71;29.85
65013;BME280;51715;39.432;-77.518;2023-10-09T03:17:18;98947.60;;;14.73;30.32
65013;BME280;51715;39.432;-77.518;2023-10-09T03:19:46;98951.18;;;14.93;30.54
65013;BME280;51715;39.432;-77.518;2023-10-09T03:22:14;98953.01;;;14.63;30.41
65013;BME280;51715;39.432;-77.518;2023-10-09T03:24:42;98953.12;;;14.35;30.26
65013;BME280;51715;39.432;-77.518;2023-10-09T03:27:10;98958.75;;;14.57;30.40
65013;BME280;51715;39.432;-77.518;2023-10-09T03:29:39;98959.27;;;14.78;30.42
65013;BME280;51715;39.432;-77.518;2023-10-09T03:32:06;98962.78;;;14.62;30.26
65013;BME280;51715;39.432;-77.518;2023-10-09T03:34:34;98961.02;;;14.75;30.46
65013;BME280;51715;39.432;-77.518;2023-10-09T03:37:02;98962.71;;;14.69;30.04
65013;BME280;51715;39.432;-77.518;2023-10-09T03:39:30;98964.35;;;14.68;30.08
65013;BME280;51715;39.432;-77.518;2023-10-09T03:41:58;98969.35;;;14.73;30.34
65013;BME280;51715;39.432;-77.518;2023-10-09T03:44:27;98969.09;;;14.54;30.31
65013;BME280;51715;39.432;-77.518;2023-10-09T03:46:55;98973.26;;;14.73;30.30
65013;BME280;51715;39.432;-77.518;2023-10-09T03:49:23;98975.62;;;14.92;30.03
65013;BME280;51715;39.432;-77.518;2023-10-09T03:51:50;98973.66;;;14.93;29.98
65013;BME280;51715;39.432;-77.518;2023-10-09T03:54:19;98976.75;;;14.90;30.14
65013;BME280;51715;39.432;-77.518;2023-10-09T03:56:47;98975.33;;;14.69;29.97
65013;BME280;51715;39.432;-77.518;2023-10-09T03:59:16;98972.14;;;15.01;30.30
65013;BME280;51715;39.432;-77.518;2023-10-09T04:04:05;98970.94;;;14.62;29.46
65013;BME280;51715;39.432;-77.518;2023-10-09T04:06:34;98965.79;;;14.87;29.49
65013;BME280;51715;39.432;-77.518;2023-10-09T04:09:03;98964.32;;;14.57;29.26
65013;BME280;51715;39.432;-77.518;2023-10-09T04:11:31;98964.84;;;15.05;29.32
65013;BME280;51715;39.432;-77.518;2023-10-09T04:13:59;98961.32;;;15.06;29.32
65013;BME280;51715;39.432;-77.518;2023-10-09T04:16:27;98962.13;;;15.00;29.80
65013;BME280;51715;39.432;-77.518;2023-10-09T04:18:55;98962.16;;;14.84;30.24
65013;BME280;51715;39.432;-77.518;2023-10-09T04:21:22;98963.02;;;14.73;30.20
65013;BME280;51715;39.432;-77.518;2023-10-09T04:23:50;98961.45;;;14.59;30.49
65013;BME280;51715;39.432;-77.518;2023-10-09T04:26:18;98962.10;;;14.54;30.86
65013;BME280;51715;39.432;-77.518;2023-10-09T04:28:46;98961.80;;;14.71;31.27
65013;BME280;51715;39.432;-77.518;2023-10-09T04:31:14;98961.69;;;14.68;31.48
65013;BME280;51715;39.432;-77.518;2023-10-09T04:33:42;98960.08;;;14.38;31.60
65013;BME280;51715;39.432;-77.518;2023-10-09T04:36:10;98958.31;;;14.52;31.61
65013;BME280;51715;39.432;-77.518;2023-10-09T04:38:38;98957.61;;;14.44;31.91
65013;BME280;51715;39.432;-77.518;2023-10-09T04:41:07;98958.79;;;14.36;31.81
65013;BME280;51715;39.432;-77.518;2023-10-09T04:43:35;98961.75;;;14.29;31.95
65013;BME280;51715;39.432;-77.518;2023-10-09T04:46:03;98963.51;;;14.18;32.34
65013;BME280;51715;39.432;-77.518;2023-10-09T04:48:31;98960.65;;;14.07;32.61
65013;BME280;51715;39.432;-77.518;2023-10-09T04:50:58;98959.48;;;13.96;32.82
65013;BME280;51715;39.432;-77.518;2023-10-09T04:53:26;98963.45;;;14.12;33.25
65013;BME280;51715;39.432;-77.518;2023-10-09T04:55:55;98963.87;;;13.85;33.48
65013;BME280;51715;39.432;-77.518;2023-10-09T04:58:24;98964.23;;;13.79;33.70
65013;BME280;51715;39.432;-77.518;2023-10-09T05:00:53;98966.14;;;13.75;33.56
65013;BME280;51715;39.432;-77.518;2023-10-09T05:03:22;98966.45;;;13.52;33.95
65013;BME280;51715;39.432;-77.518;2023-10-09T05:05:51;98965.80;;;13.24;34.27
65013;BME280;51715;39.432;-77.518;2023-10-09T05:08:19;98966.62;;;13.27;34.10
65013;BME280;51715;39.432;-77.518;2023-10-09T05:10:47;98966.99;;;13.19;34.34
65013;BME280;51715;39.432;-77.518;2023-10-09T05:13:15;98970.39;;;13.29;34.43
65013;BME280;51715;39.432;-77.518;2023-10-09T05:15:43;98973.60;;;13.06;34.44
65013;BME280;51715;39.432;-77.518;2023-10-09T05:18:11;98975.91;;;12.98;34.44
65013;BME280;51715;39.432;-77.518;2023-10-09T05:20:38;98972.32;;;12.92;34.31
65013;BME280;51715;39.432;-77.518;2023-10-09T05:23:06;98974.90;;;12.91;34.63
65013;BME280;51715;39.432;-77.518;2023-10-09T05:25:35;98972.65;;;12.73;34.65
65013;BME280;51715;39.432;-77.518;2023-10-09T05:28:04;98973.53;;;12.73;34.54
65013;BME280;51715;39.432;-77.518;2023-10-09T05:30:32;98973.57;;;12.60;34.95
65013;BME280;51715;39.432;-77.518;2023-10-09T05:33:00;98975.71;;;12.80;34.75
65013;BME280;51715;39.432;-77.518;2023-10-09T05:35:27;98980.08;;;13.06;35.30
65013;BME280;51715;39.432;-77.518;2023-10-09T05:37:55;98981.29;;;12.87;35.32
65013;BME280;51715;39.432;-77.518;2023-10-09T05:40:23;98982.92;;;12.77;35.42
65013;BME280;51715;39.432;-77.518;2023-10-09T05:42:51;98981.94;;;12.61;35.26
65013;BME280;51715;39.432;-77.518;2023-10-09T05:45:19;98983.79;;;12.68;35.34
65013;BME280;51715;39.432;-77.518;2023-10-09T05:47:49;98982.52;;;12.68;35.42
65013;BME280;51715;39.432;-77.518;2023-10-09T05:50:16;98982.39;;;12.60;35.24
65013;BME280;51715;39.432;-77.518;2023-10-09T05:52:44;98983.12;;;12.83;35.34
65013;BME280;51715;39.432;-77.518;2023-10-09T05:55:12;98981.06;;;12.65;35.38
65013;BME280;51715;39.432;-77.518;2023-10-09T05:57:40;98977.40;;;12.36;35.09
65013;BME280;51715;39.432;-77.518;2023-10-09T06:00:09;98974.87;;;12.86;35.23
65013;BME280;51715;39.432;-77.518;2023-10-09T06:02:38;98978.89;;;12.87;35.38
65013;BME280;51715;39.432;-77.518;2023-10-09T06:05:06;98977.85;;;12.80;35.40
65013;BME280;51715;39.432;-77.518;2023-10-09T06:07:34;98978.16;;;12.62;35.39
65013;BME280;51715;39.432;-77.518;2023-10-09T06:10:03;98982.33;;;12.61;35.42
65013;BME280;51715;39.432;-77.518;2023-10-09T06:12:31;98979.04;;;12.21;36.05
65013;BME280;51715;39.432;-77.518;2023-10-09T06:14:59;98981.28;;;12.01;36.20
65013;BME280;51715;39.432;-77.518;2023-10-09T06:17:27;98981.50;;;12.31;36.04
65013;BME280;51715;39.432;-77.518;2023-10-09T06:19:55;98979.43;;;12.44;35.95
65013;BME280;51715;39.432;-77.518;2023-10-09T06:22:24;98978.45;;;12.09;36.37
65013;BME280;51715;39.432;-77.518;2023-10-09T06:24:52;98976.64;;;12.11;36.44
65013;BME280;51715;39.432;-77.518;2023-10-09T06:27:20;98973.17;;;12.24;36.40
65013;BME280;51715;39.432;-77.518;2023-10-09T06:29:48;98971.13;;;11.77;36.47
65013;BME280;51715;39.432;-77.518;2023-10-09T06:32:17;98966.16;;;11.82;36.50
65013;BME280;51715;39.432;-77.518;2023-10-09T06:34:46;98970.22;;;12.29;36.48
65013;BME280;51715;39.432;-77.518;2023-10-09T06:37:15;98971.37;;;12.12;36.36
65013;BME280;51715;39.432;-77.518;2023-10-09T06:39:43;98973.49;;;12.28;36.41
65013;BME280;51715;39.432;-77.518;2023-10-09T06:42:10;98972.08;;;11.99;36.42
65013;BME280;51715;39.432;-77.518;2023-10-09T06:44:38;98972.05;;;11.86;36.64
65013;BME280;51715;39.432;-77.518;2023-10-09T06:47:06;98967.26;;;11.80;37.01
65013;BME280;51715;39.432;-77.518;2023-10-09T06:49:35;98961.87;;;11.72;37.27
65013;BME280;51715;39.432;-77.518;2023-10-09T06:52:03;98960.80;;;11.56;37.68
65013;BME280;51715;39.432;-77.518;2023-10-09T06:54:32;98956.73;;;11.54;37.90
65013;BME280;51715;39.432;-77.518;2023-10-09T06:56:59;98956.82;;;11.56;37.92
65013;BME280;51715;39.432;-77.518;2023-10-09T06:59:27;98954.41;;;11.58;37.81
65013;BME280;51715;39.432;-77.518;2023-10-09T07:01:56;98951.23;;;11.65;37.81
65013;BME280;51715;39.432;-77.518;2023-10-09T07:04:23;98947.36;;;11.72;37.48
65013;BME280;51715;39.432;-77.518;2023-10-09T07:06:51;98946.35;;;11.45;37.72
65013;BME280;51715;39.432;-77.518;2023-10-09T07:09:20;98943.57;;;11.50;38.03
65013;BME280;51715;39.432;-77.518;2023-10-09T07:11:49;98942.69;;;11.45;37.98
65013;BME280;51715;39.432;-77.518;2023-10-09T07:14:18;98946.58;;;11.70;38.00
65013;BME280;51715;39.432;-77.518;2023-10-09T07:16:47;98943.53;;;11.26;37.84
65013;BME280;51715;39.432;-77.518;2023-10-09T07:19:16;98942.85;;;11.48;37.79
65013;BME280;51715;39.432;-77.518;2023-10-09T07:21:44;98940.78;;;11.61;37.53
65013;BME280;51715;39.432;-77.518;2023-10-09T07:24:12;98939.63;;;11.62;37.46
65013;BME280;51715;39.432;-77.518;2023-10-09T07:26:40;98941.68;;;11.42;37.42
65013;BME280;51715;39.432;-77.518;2023-10-09T07:29:09;98943.02;;;11.54;37.66
65013;BME280;51715;39.432;-77.518;2023-10-09T07:31:37;98943.04;;;11.43;37.57
65013;BME280;51715;39.432;-77.518;2023-10-09T07:34:05;98946.97;;;11.42;37.49
65013;BME280;51715;39.432;-77.518;2023-10-09T07:36:32;98944.36;;;11.36;37.61
65013;BME280;51715;39.432;-77.518;2023-10-09T07:39:01;98948.32;;;11.34;37.68
65013;BME280;51715;39.432;-77.518;2023-10-09T07:41:32;98946.97;;;11.19;37.96
65013;BME280;51715;39.432;-77.518;2023-10-09T07:44:01;98944.90;;;11.09;38.34
65013;BME280;51715;39.432;-77.518;2023-10-09T07:46:28;98947.44;;;11.11;38.38
65013;BME280;51715;39.432;-77.518;2023-10-09T07:48:57;98947.83;;;11.18;38.18
65013;BME280;51715;39.432;-77.518;2023-10-09T07:51:26;98950.79;;;11.03;38.19
65013;BME280;51715;39.432;-77.518;2023-10-09T07:53:54;98950.66;;;11.19;38.32
65013;BME280;51715;39.432;-77.518;2023-10-09T07:56:23;98949.80;;;10.88;38.53
65013;BME280;51715;39.432;-77.518;2023-10-09T07:58:50;98947.19;;;11.01;38.32
65013;BME280;51715;39.432;-77.518;2023-10-09T08:01:18;98946.27;;;11.08;38.24
65013;BME280;51715;39.432;-77.518;2023-10-09T08:03:48;98945.75;;;11.04;38.15
65013;BME280;51715;39.432;-77.518;2023-10-09T08:06:16;98950.80;;;11.00;38.19
65013;BME280;51715;39.432;-77.518;2023-10-09T08:08:44;98948.82;;;10.92;38.31
65013;BME280;51715;39.432;-77.518;2023-10-09T08:11:12;98946.01;;;10.85;38.38
65013;BME280;51715;39.432;-77.518;2023-10-09T08:13:40;98944.25;;;10.80;38.49
65013;BME280;51715;39.432;-77.518;2023-10-09T08:16:08;98941.91;;;11.20;38.50
65013;BME280;51715;39.432;-77.518;2023-10-09T08:18:36;98939.67;;;10.74;38.48
65013;BME280;51715;39.432;-77.518;2023-10-09T08:21:04;98939.90;;;10.70;38.60
65013;BME280;51715;39.432;-77.518;2023-10-09T08:23:31;98941.91;;;10.72;38.57
65013;BME280;51715;39.432;-77.518;2023-10-09T08:26:00;98942.39;;;11.13;38.58
65013;BME280;51715;39.432;-77.518;2023-10-09T08:28:29;98940.55;;;10.92;38.59
65013;BME280;51715;39.432;-77.518;2023-10-09T08:30:57;98937.32;;;10.59;38.62
65013;BME280;51715;39.432;-77.518;2023-10-09T08:33:25;98936.36;;;10.47;38.65
65013;BME280;51715;39.432;-77.518;2023-10-09T08:35:54;98935.36;;;10.67;38.80
65013;BME280;51715;39.432;-77.518;2023-10-09T08:38:23;98935.06;;;10.85;38.95
65013;BME280;51715;39.432;-77.518;2023-10-09T08:40:52;98931.36;;;10.35;39.05
65013;BME280;51715;39.432;-77.518;2023-10-09T08:43:21;98931.10;;;10.80;39.18
65013;BME280;51715;39.432;-77.518;2023-10-09T08:45:53;98937.82;;;10.75;38.95
65013;BME280;51715;39.432;-77.518;2023-10-09T08:48:22;98936.56;;;10.75;38.84
65013;BME280;51715;39.432;-77.518;2023-10-09T08:50:51;98933.15;;;10.72;38.92
65013;BME280;51715;39.432;-77.518;2023-10-09T08:53:18;98931.33;;;10.67;39.12
65013;BME280;51715;39.432;-77.518;2023-10-09T08:55:47;98932.18;;;10.63;39.32
65013;BME280;51715;39.432;-77.518;2023-10-09T08:58:15;98933.70;;;10.66;39.23
65013;BME280;51715;39.432;-77.518;2023-10-09T09:00:44;98934.66;;;10.23;39.49
65013;BME280;51715;39.432;-77.518;2023-10-09T09:03:13;98933.87;;;10.66;39.84
65013;BME280;51715;39.432;-77.518;2023-10-09T09:05:41;98928.88;;;10.57;39.96
65013;BME280;51715;39.432;-77.518;2023-10-09T09:08:22;98930.12;;;10.64;39.93
65013;BME280;51715;39.432;-77.518;2023-10-09T09:10:56;98932.78;;;10.97;39.73
65013;BME280;51715;39.432;-77.518;2023-10-09T09:13:24;98932.12;;;10.59;39.97
65013;BME280;51715;39.432;-77.518;2023-10-09T09:15:53;98930.33;;;10.91;40.04
65013;BME280;51715;39.432;-77.518;2023-10-09T09:18:20;98931.37;;;10.80;39.66
65013;BME280;51715;39.432;-77.518;2023-10-09T09:20:48;98928.90;;;10.86;39.63
65013;BME280;51715;39.432;-77.518;2023-10-09T09:23:16;98927.39;;;10.97;39.43
65013;BME280;51715;39.432;-77.518;2023-10-09T09:25:46;98929.39;;;11.10;39.49
65013;BME280;51715;39.432;-77.518;2023-10-09T09:28:15;98932.43;;;11.14;39.22
65013;BME280;51715;39.432;-77.518;2023-10-09T09:30:43;98934.72;;;11.01;39.21
65013;BME280;51715;39.432;-77.518;2023-10-09T09:33:19;98936.64;;;11.26;39.20
65013;BME280;51715;39.432;-77.518;2023-10-09T09:36:04;98935.56;;;11.36;39.19
65013;BME280;51715;39.432;-77.518;2023-10-09T09:38:34;98936.13;;;11.27;39.06
65013;BME280;51715;39.432;-77.518;2023-10-09T09:41:02;98935.94;;;11.52;39.23
65013;BME280;51715;39.432;-77.518;2023-10-09T09:43:32;98931.42;;;11.60;39.43
65013;BME280;51715;39.432;-77.518;2023-10-09T09:46:01;98932.04;;;11.68;39.07
65013;BME280;51715;39.432;-77.518;2023-10-09T09:48:30;98933.28;;;11.53;38.98
65013;BME280;51715;39.432;-77.518;2023-10-09T09:50:58;98932.34;;;11.80;38.94
65013;BME280;51715;39.432;-77.518;2023-10-09T09:53:26;98930.34;;;11.82;38.89
65013;BME280;51715;39.432;-77.518;2023-10-09T09:55:55;98933.79;;;11.72;38.78
65013;BME280;51715;39.432;-77.518;2023-10-09T09:58:24;98938.15;;;11.54;38.63
65013;BME280;51715;39.432;-77.518;2023-10-09T10:00:53;98941.78;;;11.56;38.42
65013;BME280;51715;39.432;-77.518;2023-10-09T10:03:28;98942.59;;;11.85;38.19
65013;BME280;51715;39.432;-77.518;2023-10-09T10:05:58;98943.23;;;11.53;38.22
65013;BME280;51715;39.432;-77.518;2023-10-09T10:08:28;98945.85;;;11.69;38.35
65013;BME280;51715;39.432;-77.518;2023-10-09T10:10:56;98949.39;;;11.65;38.52
65013;BME280;51715;39.432;-77.518;2023-10-09T10:13:55;98948.40;;;11.58;38.82
65013;BME280;51715;39.432;-77.518;2023-10-09T10:16:24;98949.86;;;11.52;38.91
65013;BME280;51715;39.432;-77.518;2023-10-09T10:18:55;98948.49;;;11.44;38.80
65013;BME280;51715;39.432;-77.518;2023-10-09T10:21:24;98949.62;;;11.40;38.84
65013;BME280;51715;39.432;-77.518;2023-10-09T10:23:52;98951.86;;;11.17;39.06
65013;BME280;51715;39.432;-77.518;2023-10-09T10:26:21;98951.34;;;11.35;39.10
65013;BME280;51715;39.432;-77.518;2023-10-09T10:29:16;98948.43;;;11.25;39.32
65013;BME280;51715;39.432;-77.518;2023-10-09T10:32:01;98955.27;;;11.16;39.39
65013;BME280;51715;39.432;-77.518;2023-10-09T10:34:53;98954.18;;;11.17;39.23
65013;BME280;51715;39.432;-77.518;2023-10-09T10:37:21;98956.17;;;11.15;39.07
65013;BME280;51715;39.432;-77.518;2023-10-09T10:39:52;98956.19;;;11.17;38.73
65013;BME280;51715;39.432;-77.518;2023-10-09T10:42:20;98956.56;;;11.63;38.56
65013;BME280;51715;39.432;-77.518;2023-10-09T10:44:49;98957.40;;;11.12;38.69
65013;BME280;51715;39.432;-77.518;2023-10-09T10:47:27;98960.57;;;10.84;38.73
65013;BME280;51715;39.432;-77.518;2023-10-09T10:49:56;98960.77;;;10.98;38.98
65013;BME280;51715;39.432;-77.518;2023-10-09T10:52:23;98958.48;;;10.92;39.00
65013;BME280;51715;39.432;-77.518;2023-10-09T10:54:52;98962.84;;;10.94;39.20
65013;BME280;51715;39.432;-77.518;2023-10-09T10:57:20;98964.67;;;10.96;39.13
65013;BME280;51715;39.432;-77.518;2023-10-09T10:59:49;98969.35;;;10.94;39.25
65013;BME280;51715;39.432;-77.518;2023-10-09T11:02:18;98969.45;;;10.95;39.26
65013;BME280;51715;39.432;-77.518;2023-10-09T11:04:46;98970.53;;;10.97;39.34
65013;BME280;51715;39.432;-77.518;2023-10-09T11:07:22;98970.58;;;10.96;39.44
65013;BME280;51715;39.432;-77.518;2023-10-09T11:09:52;98972.90;;;11.05;39.46
65013;BME280;51715;39.432;-77.518;2023-10-09T11:12:20;98969.08;;;11.02;39.51
65013;BME280;51715;39.432;-77.518;2023-10-09T11:14:48;98969.06;;;11.29;39.72
65013;BME280;51715;39.432;-77.518;2023-10-09T11:17:17;98972.05;;;11.06;39.80
65013;BME280;51715;39.432;-77.518;2023-10-09T11:19:47;98973.91;;;11.06;39.95
65013;BME280;51715;39.432;-77.518;2023-10-09T11:22:15;98980.19;;;10.98;40.20
65013;BME280;51715;39.432;-77.518;2023-10-09T11:24:43;98981.04;;;11.04;40.12
65013;BME280;51715;39.432;-77.518;2023-10-09T11:27:16;98983.82;;;11.09;40.15
65013;BME280;51715;39.432;-77.518;2023-10-09T11:29:49;98989.58;;;11.22;40.25
65013;BME280;51715;39.432;-77.518;2023-10-09T11:32:18;98992.63;;;11.37;40.19
65013;BME280;51715;39.432;-77.518;2023-10-09T11:34:48;98994.17;;;11.47;39.95
65013;BME280;51715;39.432;-77.518;2023-10-09T11:37:16;98996.56;;;11.43;40.12
65013;BME280;51715;39.432;-77.518;2023-10-09T11:39:44;98993.70;;;11.54;40.01
65013;BME280;51715;39.432;-77.518;2023-10-09T11:42:15;98991.57;;;11.44;39.88
65013;BME280;51715;39.432;-77.518;2023-10-09T11:44:43;98992.54;;;11.76;39.58
65013;BME280;51715;39.432;-77.518;2023-10-09T11:47:12;98997.03;;;11.81;39.44
65013;BME280;51715;39.432;-77.518;2023-10-09T11:49:48;99001.02;;;11.72;39.65
65013;BME280;51715;39.432;-77.518;2023-10-09T11:52:16;99001.48;;;11.66;39.75
65013;BME280;51715;39.432;-77.518;2023-10-09T11:54:44;98997.99;;;11.76;39.76
65013;BME280;51715;39.432;-77.518;2023-10-09T11:57:12;98991.67;;;12.14;39.67
65013;BME280;51715;39.432;-77.518;2023-10-09T11:59:41;98992.46;;;11.89;40.01
65013;BME280;51715;39.432;-77.518;2023-10-09T12:02:10;98993.45;;;12.11;39.41
65013;BME280;51715;39.432;-77.518;2023-10-09T12:04:38;99000.67;;;12.24;39.04
65013;BME280;51715;39.432;-77.518;2023-10-09T12:07:06;99000.61;;;12.59;38.61
65013;BME280;51715;39.432;-77.518;2023-10-09T12:09:34;98997.48;;;12.82;38.30
65013;BME280;51715;39.432;-77.518;2023-10-09T12:12:03;98998.85;;;12.79;37.55
65013;BME280;51715;39.432;-77.518;2023-10-09T12:14:31;99001.35;;;13.28;37.28
65013;BME280;51715;39.432;-77.518;2023-10-09T12:17:00;99003.77;;;12.91;36.99
65013;BME280;51715;39.432;-77.518;2023-10-09T12:19:28;99004.99;;;13.08;36.09
65013;BME280;51715;39.432;-77.518;2023-10-09T12:21:57;99005.40;;;13.55;36.22
65013;BME280;51715;39.432;-77.518;2023-10-09T12:24:25;99001.41;;;13.48;35.64
65013;BME280;51715;39.432;-77.518;2023-10-09T12:26:52;99006.73;;;13.36;35.30
65013;BME280;51715;39.432;-77.518;2023-10-09T12:29:20;98998.79;;;13.36;35.23
65013;BME280;51715;39.432;-77.518;2023-10-09T12:31:49;99003.15;;;13.40;34.52
65013;BME280;51715;39.432;-77.518;2023-10-09T12:34:18;99000.85;;;13.56;34.73
65013;BME280;51715;39.432;-77.518;2023-10-09T12:36:46;98999.74;;;13.79;34.53
65013;BME280;51715;39.432;-77.518;2023-10-09T12:39:14;99003.36;;;13.93;34.79
65013;BME280;51715;39.432;-77.518;2023-10-09T12:41:41;99008.23;;;14.11;34.90
65013;BME280;51715;39.432;-77.518;2023-10-09T12:44:10;99008.88;;;13.67;34.63
65013;BME280;51715;39.432;-77.518;2023-10-09T12:46:38;99011.02;;;13.90;34.16
65013;BME280;51715;39.432;-77.518;2023-10-09T12:49:06;99013.65;;;14.18;33.86
65013;BME280;51715;39.432;-77.518;2023-10-09T12:51:34;99014.43;;;14.15;33.30